createdAt,value
2022-08-27T00:01:52.370Z,59.90
2022-08-27T00:04:20.131Z,60.13
2022-08-27T00:06:47.665Z,60.13
2022-08-27T00:09:15.147Z,59.62
2022-08-27T00:11:43.300Z,60.07
2022-08-27T00:14:11.352Z,60.29
2022-08-27T00:16:39.064Z,59.86
2022-08-27T00:19:06.539Z,60.06
2022-08-27T00:21:34.232Z,59.87
2022-08-27T00:24:02.333Z,60.32
2022-08-27T00:26:30.225Z,60.29
2022-08-27T00:28:57.938Z,60.19
2022-08-27T00:31:27.473Z,60.23
2022-08-27T00:33:56.211Z,61.10
2022-08-27T00:36:24.540Z,62.21
2022-08-27T00:38:53.874Z,61.92
2022-08-27T00:41:22.736Z,63.07
2022-08-27T00:43:59.956Z,66.70
2022-08-27T00:46:39.035Z,65.99
2022-08-27T00:49:15.274Z,65.90
2022-08-27T00:51:44.145Z,63.89
2022-08-27T00:54:12.871Z,64.36
2022-08-27T00:56:51.552Z,64.28
2022-08-27T00:59:23.123Z,65.54
2022-08-27T01:02:09.482Z,64.69
2022-08-27T01:04:40.930Z,66.50
2022-08-27T01:07:09.946Z,64.43
2022-08-27T01:09:38.296Z,64.71
2022-08-27T01:12:05.884Z,64.69
2022-08-27T01:14:34.296Z,64.98
2022-08-27T01:17:03.686Z,65.63
2022-08-27T01:19:38.628Z,67.16
2022-08-27T01:22:33.403Z,67.56
2022-08-27T01:25:06.811Z,66.39
2022-08-27T01:27:34.592Z,63.32
2022-08-27T01:30:02.906Z,63.52
2022-08-27T01:32:33.880Z,65.21
2022-08-27T01:35:04.915Z,65.05
2022-08-27T01:37:33.947Z,64.57
2022-08-27T01:40:02.442Z,65.08
2022-08-27T01:42:46.796Z,69.57
2022-08-27T01:45:21.538Z,65.93
2022-08-27T01:47:49.120Z,65.10
2022-08-27T01:50:27.807Z,67.37
2022-08-27T01:52:56.577Z,64.50
2022-08-27T01:55:26.925Z,65.68
2022-08-27T01:57:55.605Z,64.62
2022-08-27T02:00:33.152Z,66.13
2022-08-27T02:03:01.444Z,63.91
2022-08-27T02:05:30.496Z,64.13
2022-08-27T02:07:59.239Z,63.98
2022-08-27T02:10:33.151Z,65.24
2022-08-27T02:13:00.779Z,63.67
2022-08-27T02:15:28.958Z,63.09
2022-08-27T02:17:56.562Z,62.80
2022-08-27T02:20:24.098Z,62.50
2022-08-27T02:22:57.327Z,62.06
2022-08-27T02:25:25.470Z,62.05
2022-08-27T02:27:54.904Z,61.14
2022-08-27T02:30:24.464Z,61.18
2022-08-27T02:32:53.341Z,59.94
2022-08-27T02:35:23.856Z,60.60
2022-08-27T02:37:53.075Z,59.40
2022-08-27T02:40:23.719Z,59.44
2022-08-27T02:42:51.484Z,58.49
2022-08-27T02:45:20.713Z,58.68
2022-08-27T02:47:48.905Z,58.38
2022-08-27T02:50:16.874Z,58.25
2022-08-27T02:52:46.377Z,57.94
2022-08-27T02:55:17.325Z,58.20
2022-08-27T02:57:45.734Z,58.38
2022-08-27T03:00:16.629Z,58.92
2022-08-27T03:02:45.163Z,58.28
2022-08-27T03:05:14.442Z,58.68
2022-08-27T03:07:42.652Z,58.70
2022-08-27T03:10:13.831Z,58.76
2022-08-27T03:12:42.061Z,58.13
2022-08-27T03:15:12.115Z,59.10
2022-08-27T03:17:57.980Z,58.39
2022-08-27T03:20:26.541Z,59.04
2022-08-27T03:22:54.891Z,59.32
2022-08-27T03:25:22.406Z,59.21
2022-08-27T03:27:49.800Z,59.60
2022-08-27T03:30:20.447Z,60.12
2022-08-27T03:32:48.258Z,59.68
2022-08-27T03:35:17.036Z,60.16
2022-08-27T03:37:44.569Z,60.16
2022-08-27T03:40:13.493Z,60.64
2022-08-27T03:42:42.473Z,60.71
2022-08-27T03:45:11.557Z,61.30
2022-08-27T03:47:39.536Z,61.31
2022-08-27T03:50:08.270Z,61.38
2022-08-27T03:52:36.328Z,61.23
2022-08-27T03:55:06.071Z,61.75
2022-08-27T03:57:34.117Z,61.18
2022-08-27T04:00:01.587Z,61.33
2022-08-27T04:02:31.754Z,61.77
2022-08-27T04:04:59.293Z,61.96
2022-08-27T04:07:26.801Z,62.19
2022-08-27T04:09:54.280Z,62.21
2022-08-27T04:12:21.836Z,62.07
2022-08-27T04:14:49.340Z,62.08
2022-08-27T04:17:16.752Z,62.48
2022-08-27T04:19:44.172Z,63.08
2022-08-27T04:22:11.708Z,62.87
2022-08-27T04:24:39.390Z,63.30
2022-08-27T04:27:07.393Z,62.97
2022-08-27T04:29:35.034Z,63.34
2022-08-27T04:32:04.603Z,63.66
2022-08-27T04:34:32.190Z,63.31
2022-08-27T04:37:00.064Z,63.77
2022-08-27T04:39:28.800Z,64.33
2022-08-27T04:41:58.472Z,65.07
2022-08-27T04:44:32.748Z,66.41
2022-08-27T04:47:03.453Z,65.89
2022-08-27T04:49:32.754Z,66.11
2022-08-27T04:52:02.114Z,65.86
2022-08-27T04:54:32.896Z,65.39
2022-08-27T04:57:04.669Z,65.71
2022-08-27T04:59:33.454Z,65.81
2022-08-27T05:02:03.637Z,65.61
2022-08-27T05:04:34.705Z,65.40
2022-08-27T05:07:02.430Z,65.14
2022-08-27T05:09:30.138Z,65.56
2022-08-27T05:11:57.582Z,65.97
2022-08-27T05:14:30.237Z,66.17
2022-08-27T05:16:59.378Z,66.17
2022-08-27T05:19:26.958Z,65.00
2022-08-27T05:21:54.498Z,64.95
2022-08-27T05:24:22.585Z,66.39
2022-08-27T05:26:50.898Z,66.57
2022-08-27T05:29:18.840Z,65.36
2022-08-27T05:31:48.742Z,65.37
2022-08-27T05:34:18.855Z,65.17
2022-08-27T05:36:53.442Z,65.66
2022-08-27T05:39:20.953Z,66.19
2022-08-27T05:41:48.490Z,66.07
2022-08-27T05:44:40.489Z,65.67
2022-08-27T05:47:05.620Z,64.56
2022-08-27T05:49:33.172Z,64.19
2022-08-27T05:52:00.751Z,63.72
2022-08-27T05:54:28.754Z,63.41
2022-08-27T05:56:56.173Z,62.17
2022-08-27T05:59:42.247Z,61.43
2022-08-27T06:02:09.739Z,61.22
2022-08-27T06:04:37.302Z,61.44
2022-08-27T06:07:04.887Z,61.80
2022-08-27T06:09:32.481Z,61.42
2022-08-27T06:12:02.816Z,62.15
2022-08-27T06:14:30.535Z,61.34
2022-08-27T06:17:00.751Z,61.50
2022-08-27T06:19:28.383Z,62.23
2022-08-27T06:22:00.245Z,62.03
2022-08-27T06:24:29.766Z,62.05
2022-08-27T06:26:57.750Z,62.07
2022-08-27T06:29:25.501Z,61.94
2022-08-27T06:31:55.256Z,61.01
2022-08-27T06:34:23.091Z,60.56
2022-08-27T06:36:50.593Z,60.48
2022-08-27T06:39:18.103Z,60.57
2022-08-27T06:41:45.650Z,60.12
2022-08-27T06:44:14.208Z,60.42
2022-08-27T06:46:43.151Z,59.92
2022-08-27T06:49:12.541Z,59.62
2022-08-27T06:51:45.037Z,60.13
2022-08-27T06:54:14.171Z,60.03
2022-08-27T06:56:43.923Z,60.35
2022-08-27T06:59:15.700Z,60.25
2022-08-27T07:01:46.397Z,59.98
2022-08-27T07:04:19.983Z,60.05
2022-08-27T07:06:47.665Z,58.89
2022-08-27T07:09:15.621Z,57.73
2022-08-27T07:11:44.072Z,57.79
2022-08-27T07:14:11.956Z,57.43
2022-08-27T07:16:40.962Z,57.11
2022-08-27T07:19:09.140Z,56.63
2022-08-27T07:21:39.313Z,55.82
2022-08-27T07:24:08.103Z,55.51
2022-08-27T07:26:38.433Z,55.54
2022-08-27T07:29:08.880Z,54.60
2022-08-27T07:31:36.514Z,53.39
2022-08-27T07:34:05.522Z,53.40
2022-08-27T07:36:34.495Z,52.98
2022-08-27T07:39:02.236Z,52.31
2022-08-27T07:41:32.070Z,51.95
2022-08-27T07:44:19.635Z,51.68
2022-08-27T07:46:49.562Z,50.91
2022-08-27T07:49:18.467Z,50.47
2022-08-27T07:51:46.267Z,49.63
2022-08-27T07:54:14.660Z,49.08
2022-08-27T07:56:42.186Z,48.94
2022-08-27T07:59:12.663Z,48.80
2022-08-27T08:01:43.022Z,48.20
2022-08-27T08:04:10.693Z,48.10
2022-08-27T08:06:39.621Z,47.61
2022-08-27T08:09:07.630Z,47.46
2022-08-27T08:11:38.977Z,46.67
2022-08-27T08:14:06.396Z,46.05
2022-08-27T08:16:33.953Z,46.14
2022-08-27T08:19:02.259Z,45.85
2022-08-27T08:21:29.886Z,45.32
2022-08-27T08:23:57.483Z,44.81
2022-08-27T08:26:24.926Z,44.20
2022-08-27T08:28:52.394Z,44.13
2022-08-27T08:31:20.521Z,43.57
2022-08-27T08:33:48.902Z,43.47
2022-08-27T08:36:18.447Z,43.14
2022-08-27T08:38:47.605Z,42.64
2022-08-27T08:41:41.139Z,41.99
2022-08-27T08:44:36.873Z,41.25
2022-08-27T08:47:30.808Z,40.69
2022-08-27T08:50:06.416Z,40.67
2022-08-27T08:53:02.742Z,40.50
2022-08-27T08:55:48.664Z,39.82
2022-08-27T08:58:16.139Z,39.00
2022-08-27T09:00:45.823Z,38.45
2022-08-27T09:03:15.286Z,38.39
2022-08-27T09:06:02.959Z,38.34
2022-08-27T09:08:41.077Z,37.79
2022-08-27T09:11:47.604Z,37.80
2022-08-27T09:14:20.726Z,37.99
2022-08-27T09:16:51.015Z,37.89
2022-08-27T09:19:24.838Z,38.02
2022-08-27T09:22:01.444Z,38.03
2022-08-27T09:24:44.124Z,38.07
2022-08-27T09:27:15.081Z,38.13
2022-08-27T09:29:54.381Z,38.97
2022-08-27T09:32:25.898Z,39.10
2022-08-27T09:34:59.292Z,39.21
2022-08-27T09:37:46.195Z,38.58
2022-08-27T09:40:23.901Z,39.27
2022-08-27T09:42:57.742Z,39.45
2022-08-27T09:45:30.120Z,39.62
2022-08-27T09:48:20.098Z,39.35
2022-08-27T09:50:52.102Z,39.84
2022-08-27T09:54:00.305Z,39.45
2022-08-27T09:56:34.347Z,40.80
2022-08-27T09:59:11.136Z,40.83
2022-08-27T10:01:52.486Z,40.70
2022-08-27T10:05:01.093Z,40.25
2022-08-27T10:07:47.363Z,40.60
2022-08-27T10:10:25.937Z,40.78
2022-08-27T10:13:00.080Z,42.35
2022-08-27T10:15:43.960Z,42.82
2022-08-27T10:18:32.459Z,42.18
2022-08-27T10:21:27.475Z,42.58
2022-08-27T10:24:12.667Z,43.79
2022-08-27T10:26:57.292Z,43.17
2022-08-27T10:29:45.453Z,44.23
2022-08-27T10:32:16.809Z,43.72
2022-08-27T10:35:06.571Z,44.72
2022-08-27T10:38:07.965Z,46.47
2022-08-27T10:40:46.770Z,45.40
2022-08-27T10:43:35.855Z,45.96
2022-08-27T10:46:17.430Z,45.68
2022-08-27T10:48:55.600Z,45.91
2022-08-27T10:51:36.647Z,45.07
2022-08-27T10:54:12.994Z,46.03
2022-08-27T10:57:28.581Z,46.48
2022-08-27T11:00:12.437Z,45.72
2022-08-27T11:02:45.179Z,46.05
2022-08-27T11:05:15.433Z,45.06
2022-08-27T11:07:49.933Z,45.77
2022-08-27T11:10:47.395Z,45.59
2022-08-27T11:13:41.425Z,46.17
2022-08-27T11:16:23.601Z,45.99
2022-08-27T11:19:03.214Z,46.39
2022-08-27T11:22:04.258Z,44.93
2022-08-27T11:24:49.659Z,45.01
2022-08-27T11:27:23.564Z,44.97
2022-08-27T11:30:11.906Z,44.61
2022-08-27T11:32:59.824Z,44.61
2022-08-27T11:35:51.296Z,44.75
2022-08-27T11:38:30.919Z,44.44
2022-08-27T11:41:33.335Z,44.22
2022-08-27T11:44:17.908Z,44.29
2022-08-27T11:46:53.984Z,44.91
2022-08-27T11:49:30.229Z,44.88
2022-08-27T11:52:02.017Z,44.32
2022-08-27T11:54:44.670Z,44.85
2022-08-27T11:57:16.591Z,42.95
2022-08-27T11:59:44.220Z,43.89
2022-08-27T12:02:20.684Z,45.40
2022-08-27T12:04:50.079Z,44.13
2022-08-27T12:07:18.279Z,44.50
2022-08-27T12:10:00.224Z,45.34
2022-08-27T12:13:04.252Z,45.90
2022-08-27T12:15:59.252Z,45.69
2022-08-27T12:18:45.364Z,45.96
2022-08-27T12:21:25.040Z,45.25
2022-08-27T12:24:17.088Z,46.71
2022-08-27T12:26:57.874Z,46.73
2022-08-27T12:29:31.803Z,45.95
2022-08-27T12:32:27.974Z,46.26
2022-08-27T12:35:11.201Z,45.20
2022-08-27T12:37:51.808Z,45.66
2022-08-27T12:40:30.807Z,45.94
2022-08-27T12:43:13.137Z,46.42
2022-08-27T12:45:49.022Z,46.55
2022-08-27T12:48:24.012Z,46.15
2022-08-27T12:50:55.298Z,46.51
2022-08-27T12:53:56.553Z,46.78
2022-08-27T12:56:29.621Z,47.58
2022-08-27T12:59:24.655Z,45.46
2022-08-27T13:02:10.361Z,46.93
2022-08-27T13:04:41.436Z,47.73
2022-08-27T13:07:09.374Z,47.41
2022-08-27T13:09:39.531Z,47.60
2022-08-27T13:12:17.731Z,47.84
2022-08-27T13:14:45.860Z,47.43
2022-08-27T13:17:24.251Z,47.60
2022-08-27T13:20:01.092Z,48.93
2022-08-27T13:22:39.083Z,48.18
2022-08-27T13:25:18.988Z,48.51
2022-08-27T13:27:54.378Z,48.42
2022-08-27T13:30:36.078Z,48.21
2022-08-27T13:33:07.228Z,48.43
2022-08-27T13:35:35.800Z,48.49
2022-08-27T13:38:05.347Z,48.88
2022-08-27T13:40:50.757Z,49.59
2022-08-27T13:43:18.912Z,48.44
2022-08-27T13:45:50.696Z,50.43
2022-08-27T13:48:24.363Z,50.22
2022-08-27T13:50:55.519Z,50.08
2022-08-27T13:53:57.505Z,51.00
2022-08-27T13:56:32.040Z,50.66
2022-08-27T13:59:15.071Z,50.38
2022-08-27T14:02:04.533Z,50.88
2022-08-27T14:04:46.238Z,50.06
2022-08-27T14:07:21.020Z,51.04
2022-08-27T14:09:55.177Z,52.33
2022-08-27T14:12:41.827Z,52.65
2022-08-27T14:15:46.463Z,51.99
2022-08-27T14:18:42.123Z,53.47
2022-08-27T14:21:13.837Z,51.41
2022-08-27T14:23:41.321Z,51.43
2022-08-27T14:26:09.421Z,51.50
2022-08-27T14:28:37.185Z,51.16
2022-08-27T14:31:04.889Z,51.53
2022-08-27T14:33:32.420Z,51.51
2022-08-27T14:36:01.187Z,52.07
2022-08-27T14:38:31.968Z,52.91
2022-08-27T14:40:59.717Z,52.57
2022-08-27T14:43:27.901Z,52.49
2022-08-27T14:45:57.381Z,52.60
2022-08-27T14:48:37.163Z,53.81
2022-08-27T14:51:12.579Z,54.87
2022-08-27T14:53:40.121Z,52.65
2022-08-27T14:56:07.729Z,52.93
2022-08-27T14:58:35.179Z,53.17
2022-08-27T15:01:03.933Z,53.86
2022-08-27T15:03:32.609Z,53.35
2022-08-27T15:06:00.147Z,53.74
2022-08-27T15:08:29.254Z,53.78
2022-08-27T15:10:59.816Z,54.39
2022-08-27T15:13:27.657Z,53.95
2022-08-27T15:15:55.270Z,54.34
2022-08-27T15:18:22.752Z,54.52
2022-08-27T15:20:50.597Z,55.40
2022-08-27T15:23:18.413Z,56.16
2022-08-27T15:25:46.845Z,57.14
2022-08-27T15:28:14.343Z,57.49
2022-08-27T15:30:42.129Z,57.47
2022-08-27T15:33:09.533Z,57.17
2022-08-27T15:35:37.271Z,57.70
2022-08-27T15:38:04.907Z,56.88
2022-08-27T15:40:35.469Z,57.79
2022-08-27T15:43:07.660Z,59.62
2022-08-27T15:45:36.374Z,57.10
2022-08-27T15:48:04.420Z,57.97
2022-08-27T15:50:32.659Z,58.24
2022-08-27T15:53:04.092Z,59.35
2022-08-27T15:55:35.433Z,59.85
2022-08-27T15:58:03.518Z,58.51
2022-08-27T16:00:34.090Z,59.40
2022-08-27T16:03:05.638Z,60.89
2022-08-27T16:05:35.847Z,60.23
2022-08-27T16:08:04.227Z,59.18
2022-08-27T16:10:32.433Z,60.45
2022-08-27T16:12:59.969Z,60.72
2022-08-27T16:15:27.841Z,60.72
2022-08-27T16:18:00.501Z,62.94
2022-08-27T16:20:29.022Z,61.30
2022-08-27T16:22:56.797Z,61.84
2022-08-27T16:25:24.379Z,61.53
2022-08-27T16:27:53.459Z,62.14
2022-08-27T16:30:22.669Z,64.80
2022-08-27T16:32:52.831Z,64.71
2022-08-27T16:35:21.267Z,64.15
2022-08-27T16:37:48.949Z,64.10
2022-08-27T16:40:16.793Z,65.28
2022-08-27T16:42:50.195Z,67.31
2022-08-27T16:45:18.707Z,62.18
2022-08-27T16:48:04.681Z,64.44
2022-08-27T16:50:35.100Z,63.54
2022-08-27T16:53:07.542Z,66.13
2022-08-27T16:55:37.925Z,65.75
2022-08-27T16:58:10.412Z,65.82
2022-08-27T17:00:39.464Z,66.11
2022-08-27T17:03:08.043Z,65.82
2022-08-27T17:05:35.825Z,65.08
2022-08-27T17:08:05.412Z,66.42
2022-08-27T17:10:39.033Z,68.08
2022-08-27T17:13:09.356Z,67.30
2022-08-27T17:15:37.174Z,66.58
2022-08-27T17:18:04.889Z,68.50
2022-08-27T17:20:33.679Z,69.00
2022-08-27T17:23:01.759Z,69.40
2022-08-27T17:25:29.971Z,68.59
2022-08-27T17:28:00.137Z,67.91
2022-08-27T17:30:28.528Z,68.52
2022-08-27T17:32:56.948Z,70.14
2022-08-27T17:35:24.657Z,69.40
2022-08-27T17:37:52.350Z,69.47
2022-08-27T17:40:20.066Z,70.94
2022-08-27T17:42:47.651Z,71.36
2022-08-27T17:45:17.441Z,70.91
2022-08-27T17:47:45.002Z,70.75
2022-08-27T17:50:12.982Z,70.67
2022-08-27T17:52:40.767Z,70.43
2022-08-27T17:55:08.976Z,71.00
2022-08-27T17:57:41.059Z,72.40
2022-08-27T18:00:12.056Z,73.63
2022-08-27T18:02:45.861Z,75.94
2022-08-27T18:05:14.882Z,72.83
2022-08-27T18:07:43.662Z,74.01
2022-08-27T18:10:15.283Z,75.90
2022-08-27T18:12:44.093Z,76.03
2022-08-27T18:15:23.982Z,79.07
2022-08-27T18:17:53.428Z,75.60
2022-08-27T18:20:23.258Z,76.17
2022-08-27T18:22:51.577Z,76.79
2022-08-27T18:25:21.014Z,77.13
2022-08-27T18:27:50.831Z,78.76
2022-08-27T18:30:19.391Z,78.33
2022-08-27T18:32:47.048Z,77.86
2022-08-27T18:35:19.772Z,80.96
2022-08-27T18:37:47.847Z,77.40
2022-08-27T18:40:17.610Z,78.97
2022-08-27T18:42:45.909Z,78.70
2022-08-27T18:45:23.479Z,83.18
2022-08-27T18:47:52.559Z,77.68
2022-08-27T18:50:20.986Z,77.55
2022-08-27T18:52:50.742Z,78.38
2022-08-27T18:55:22.558Z,80.25
2022-08-27T18:57:50.753Z,80.82
2022-08-27T19:00:19.549Z,81.05
2022-08-27T19:02:52.395Z,82.99
2022-08-27T19:05:26.936Z,84.28
2022-08-27T19:07:57.334Z,83.06
2022-08-27T19:10:26.271Z,81.71
2022-08-27T19:12:54.221Z,81.61
2022-08-27T19:15:21.696Z,81.27
2022-08-27T19:17:53.260Z,82.98
2022-08-27T19:20:20.833Z,81.58
2022-08-27T19:22:49.054Z,80.72
2022-08-27T19:25:17.887Z,79.57
2022-08-27T19:27:46.964Z,78.16
2022-08-27T19:30:15.691Z,78.66
2022-08-27T19:32:43.895Z,80.14
2022-08-27T19:35:11.739Z,79.99
2022-08-27T19:37:43.784Z,82.24
2022-08-27T19:40:14.782Z,81.15
2022-08-27T19:42:42.595Z,78.98
2022-08-27T19:45:10.445Z,80.20
2022-08-27T19:47:38.557Z,78.88
2022-08-27T19:50:06.684Z,81.18
2022-08-27T19:52:34.158Z,80.78
2022-08-27T19:55:13.484Z,82.87
2022-08-27T19:57:42.760Z,84.03
2022-08-27T20:00:12.988Z,86.71
2022-08-27T20:02:41.395Z,84.57
2022-08-27T20:05:18.402Z,85.34
2022-08-27T20:07:51.879Z,90.45
2022-08-27T20:10:22.344Z,89.09
2022-08-27T20:12:50.467Z,87.61
2022-08-27T20:15:19.744Z,86.55
2022-08-27T20:17:51.510Z,86.45
2022-08-27T20:20:22.215Z,88.76
2022-08-27T20:22:50.351Z,88.65
2022-08-27T20:25:18.716Z,88.74
2022-08-27T20:27:47.692Z,89.62
2022-08-27T20:30:17.409Z,90.54
2022-08-27T20:32:47.028Z,90.97
2022-08-27T20:35:16.059Z,92.05
2022-08-27T20:37:44.170Z,91.47
2022-08-27T20:40:16.653Z,93.86
2022-08-27T20:42:44.766Z,92.41
2022-08-27T20:45:13.928Z,92.42
2022-08-27T20:47:43.861Z,93.07
2022-08-27T20:50:12.989Z,93.28
2022-08-27T20:52:41.839Z,95.09
2022-08-27T20:55:12.383Z,94.61
2022-08-27T20:58:03.208Z,93.60
2022-08-27T21:00:35.650Z,95.05
2022-08-27T21:03:03.526Z,94.05
2022-08-27T21:05:34.529Z,95.02
2022-08-27T21:08:04.681Z,92.49
2022-08-27T21:10:33.309Z,94.30
2022-08-27T21:13:04.560Z,94.92
2022-08-27T21:15:32.823Z,94.74
2022-08-27T21:18:00.354Z,94.98
2022-08-27T21:20:27.842Z,93.97
2022-08-27T21:22:57.981Z,94.90
2022-08-27T21:25:27.154Z,94.67
2022-08-27T21:27:57.180Z,95.34
2022-08-27T21:30:26.710Z,95.77
2022-08-27T21:32:56.124Z,93.79
2022-08-27T21:35:27.611Z,95.47
2022-08-27T21:37:56.511Z,95.44
2022-08-27T21:40:25.474Z,94.02
2022-08-27T21:42:54.449Z,94.83
2022-08-27T21:45:22.475Z,93.47
2022-08-27T21:47:51.986Z,92.82
2022-08-27T21:50:20.743Z,93.63
2022-08-27T21:52:48.269Z,93.94
2022-08-27T21:55:15.997Z,95.59
2022-08-27T21:57:43.459Z,95.59
2022-08-27T22:00:26.045Z,97.27
2022-08-27T22:02:53.570Z,96.31
2022-08-27T22:05:22.262Z,97.13
2022-08-27T22:07:49.833Z,96.83
2022-08-27T22:10:17.611Z,97.72
2022-08-27T22:12:45.039Z,97.07
2022-08-27T22:15:13.194Z,98.02
2022-08-27T22:17:40.602Z,96.41
2022-08-27T22:20:09.818Z,95.07
2022-08-27T22:22:38.197Z,94.16
2022-08-27T22:25:07.646Z,94.36
2022-08-27T22:27:35.771Z,94.15
2022-08-27T22:30:06.486Z,94.83
2022-08-27T22:32:37.536Z,94.38
2022-08-27T22:35:05.336Z,95.65
2022-08-27T22:37:32.855Z,95.19
2022-08-27T22:40:00.454Z,94.87
2022-08-27T22:42:30.402Z,95.55
2022-08-27T22:44:57.860Z,95.44
2022-08-27T22:47:25.411Z,96.06
2022-08-27T22:49:53.086Z,96.68
2022-08-27T22:52:28.269Z,96.93
2022-08-27T22:54:56.138Z,97.22
2022-08-27T22:57:23.555Z,96.89
2022-08-27T22:59:51.095Z,96.86
2022-08-27T23:02:18.981Z,96.00
2022-08-27T23:04:54.867Z,97.88
2022-08-27T23:07:24.582Z,98.41
2022-08-27T23:09:52.210Z,97.02
2022-08-27T23:12:20.115Z,97.31
2022-08-27T23:14:47.749Z,97.13
2022-08-27T23:17:16.333Z,97.95
2022-08-27T23:19:43.826Z,97.75
2022-08-27T23:22:11.807Z,97.46
2022-08-27T23:24:59.137Z,96.88
2022-08-27T23:27:29.700Z,96.64
2022-08-27T23:29:59.141Z,98.07
2022-08-27T23:32:27.336Z,97.25
2022-08-27T23:34:55.313Z,97.46
2022-08-27T23:37:23.115Z,97.06
2022-08-27T23:39:50.720Z,97.52
2022-08-27T23:42:18.975Z,97.63
2022-08-27T23:44:47.573Z,97.45
2022-08-27T23:47:16.144Z,98.04
2022-08-27T23:49:44.075Z,96.65
2022-08-27T23:52:13.211Z,98.42
2022-08-27T23:54:41.463Z,98.39
2022-08-27T23:57:09.018Z,96.02
2022-08-27T23:59:36.363Z,96.73
